Time;durP1;ratioP1;P1;durP2;ratioP2;P2;SDS_P1;SDS_P2;PMS_P1;PMS_P2;Temp;Humidity;BMP_temperature;BMP_pressure;BME280_temperature;BME280_humidity;BME280_pressure;Samples;Min_cycle;Max_cycle;Signal;HPM_P1;HPM_P2
2023/01/19 00:01:14;;;;;;;;;;;5.70;99.90;;;;;;4895176;29;19926;-68
2023/01/19 00:03:41;;;;;;;;;;;5.70;99.90;;;;;;4882682;29;19926;-67
2023/01/19 00:06:06;;;;;;;;;;;5.70;99.90;;;;;;4896859;29;19919;-66
2023/01/19 00:08:33;;;;;;;;;;;5.60;99.90;;;;;;4901511;29;20351;-67
2023/01/19 00:10:58;;;;;;;;;;;5.60;99.90;;;;;;4887185;29;23979;-67
2023/01/19 00:13:24;;;;;;;;;;;5.60;99.90;;;;;;4902211;29;20010;-66
2023/01/19 00:15:49;;;;;;;;;;;5.60;99.90;;;;;;4890204;29;19919;-66
2023/01/19 00:18:15;;;;;;;;;;;5.60;99.90;;;;;;4895350;29;19915;-65
2023/01/19 00:20:41;;;;;;;;;;;5.50;99.90;;;;;;4887037;29;19961;-65
2023/01/19 00:23:06;;;;;;;;;;;5.50;99.90;;;;;;4900049;29;20364;-65
2023/01/19 00:25:32;;;;;;;;;;;5.60;99.90;;;;;;4894482;29;21391;-65
2023/01/19 00:27:58;;;;;;;;;;;5.50;99.90;;;;;;4890897;29;19922;-66
2023/01/19 00:30:23;;;;;;;;;;;5.50;99.90;;;;;;4872990;29;20443;-66
2023/01/19 00:32:49;;;;;;;;;;;5.50;99.90;;;;;;4885545;29;19914;-66
2023/01/19 00:35:15;;;;;;;;;;;5.40;99.90;;;;;;4899206;29;20379;-66
2023/01/19 00:37:44;;;;;;;;;;;5.40;99.90;;;;;;4898430;29;20373;-66
2023/01/19 00:40:11;;;;;;;;;;;5.30;99.90;;;;;;4896737;29;20451;-66
2023/01/19 00:42:39;;;;;;;;;;;5.20;99.90;;;;;;4893092;29;19919;-66
2023/01/19 00:45:08;;;;;;;;;;;5.20;99.90;;;;;;4897622;29;20001;-67
2023/01/19 00:47:34;;;;;;;;;;;5.10;99.90;;;;;;4897324;29;19914;-67
2023/01/19 00:49:59;;;;;;;;;;;5.10;99.90;;;;;;4897572;29;20420;-67
2023/01/19 00:52:25;;;;;;;;;;;5.10;99.90;;;;;;4897690;29;20363;-68
2023/01/19 00:54:50;;;;;;;;;;;5.00;99.90;;;;;;4899578;29;20384;-67
2023/01/19 00:57:18;;;;;;;;;;;5.00;99.90;;;;;;4898705;29;19933;-68
2023/01/19 00:59:43;;;;;;;;;;;5.00;99.90;;;;;;4894718;29;19919;-68
2023/01/19 01:02:10;;;;;;;;;;;5.00;99.90;;;;;;4894011;29;20667;-64
2023/01/19 01:04:36;;;;;;;;;;;5.00;99.90;;;;;;4898565;29;20002;-67
2023/01/19 01:07:02;;;;;;;;;;;4.90;99.90;;;;;;4896968;29;20368;-67
2023/01/19 01:09:27;;;;;;;;;;;4.90;99.90;;;;;;4898664;29;19921;-69
2023/01/19 01:11:53;;;;;;;;;;;4.80;99.90;;;;;;4896555;29;19930;-70
2023/01/19 01:14:19;;;;;;;;;;;4.80;99.90;;;;;;4889379;29;19911;-69
2023/01/19 01:16:44;;;;;;;;;;;4.80;99.90;;;;;;4897614;29;20594;-68
2023/01/19 01:19:10;;;;;;;;;;;4.70;99.90;;;;;;4904226;29;19919;-67
2023/01/19 01:21:36;;;;;;;;;;;4.80;99.90;;;;;;4898508;29;19934;-67
2023/01/19 01:24:02;;;;;;;;;;;4.70;99.90;;;;;;4896668;29;19958;-67
2023/01/19 01:26:27;;;;;;;;;;;4.60;99.90;;;;;;4896203;29;19997;-67
2023/01/19 01:28:53;;;;;;;;;;;4.60;99.90;;;;;;4889965;29;20021;-67
2023/01/19 01:31:18;;;;;;;;;;;4.60;99.90;;;;;;4892078;29;20298;-67
2023/01/19 01:33:44;;;;;;;;;;;4.60;99.90;;;;;;4889663;29;22534;-67
2023/01/19 01:36:10;;;;;;;;;;;4.70;99.90;;;;;;4901215;29;19915;-67
2023/01/19 01:38:36;;;;;;;;;;;4.70;99.90;;;;;;4897347;29;19915;-67
2023/01/19 01:41:02;;;;;;;;;;;4.60;99.90;;;;;;4895100;29;19914;-67
2023/01/19 01:43:41;;;;;;;;;;;4.60;99.90;;;;;;4897385;29;19911;-63
2023/01/19 01:46:06;;;;;;;;;;;4.60;99.90;;;;;;4895833;29;19915;-64
2023/01/19 01:48:32;;;;;;;;;;;4.60;99.90;;;;;;4893946;29;19921;-64
2023/01/19 01:53:42;;;;;;;;;;;4.70;99.90;;;;;;4891250;29;19978;-64
2023/01/19 01:56:10;;;;;;;;;;;4.60;99.90;;;;;;4892722;29;19931;-65
2023/01/19 01:58:36;;;;;;;;;;;4.60;99.90;;;;;;4885791;29;19915;-64
2023/01/19 02:03:46;;;;;;;;;;;4.40;99.90;;;;;;4889832;29;19993;-64
2023/01/19 02:06:13;;;;;;;;;;;4.40;99.90;;;;;;4891888;29;20369;-64
2023/01/19 02:14:26;;;;;;;;;;;4.30;99.90;;;;;;4890427;29;19926;-63
2023/01/19 02:16:52;;;;;;;;;;;4.30;99.90;;;;;;4886532;29;20325;-64
2023/01/19 02:19:22;;;;;;;;;;;4.30;99.90;;;;;;4894404;29;19982;-66
2023/01/19 02:21:58;;;;;;;;;;;4.30;99.90;;;;;;4880051;29;20048;-66
2023/01/19 02:24:24;;;;;;;;;;;4.30;99.90;;;;;;4889048;29;19925;-66
2023/01/19 02:26:50;;;;;;;;;;;4.30;99.90;;;;;;4885685;29;19915;-65
2023/01/19 02:29:17;;;;;;;;;;;4.30;99.90;;;;;;4893901;29;20058;-66
2023/01/19 02:31:44;;;;;;;;;;;4.30;99.90;;;;;;4892650;29;19989;-66
2023/01/19 02:34:11;;;;;;;;;;;4.30;99.90;;;;;;4891476;29;19911;-66
2023/01/19 02:36:57;;;;;;;;;;;4.30;99.90;;;;;;4888336;29;20478;-65
2023/01/19 02:39:28;;;;;;;;;;;4.30;99.90;;;;;;4893129;29;19923;-64
2023/01/19 02:41:55;;;;;;;;;;;4.20;99.90;;;;;;4892431;29;19920;-64
2023/01/19 02:44:21;;;;;;;;;;;4.20;99.90;;;;;;4884568;29;19921;-64
2023/01/19 02:46:47;;;;;;;;;;;4.20;99.90;;;;;;4888916;29;19944;-64
2023/01/19 02:49:12;;;;;;;;;;;4.20;99.90;;;;;;4889936;29;20504;-64
2023/01/19 02:51:41;;;;;;;;;;;4.20;99.90;;;;;;4889760;29;19927;-64
2023/01/19 02:54:12;;;;;;;;;;;4.20;99.90;;;;;;4889813;29;19914;-65
2023/01/19 02:56:41;;;;;;;;;;;4.20;99.90;;;;;;4886130;29;20696;-65
2023/01/19 02:59:26;;;;;;;;;;;4.20;99.90;;;;;;4887057;29;20437;-66
2023/01/19 03:02:00;;;;;;;;;;;4.20;99.90;;;;;;4917572;29;19993;-66
2023/01/19 03:04:26;;;;;;;;;;;4.10;99.90;;;;;;4892256;29;20042;-66
2023/01/19 03:06:54;;;;;;;;;;;4.20;99.90;;;;;;4891730;29;20507;-66
2023/01/19 03:09:37;;;;;;;;;;;4.20;99.90;;;;;;4896282;29;20372;-66
2023/01/19 03:12:22;;;;;;;;;;;4.10;99.90;;;;;;4892846;29;20284;-66
2023/01/19 03:14:48;;;;;;;;;;;4.00;99.90;;;;;;4890739;29;20007;-66
2023/01/19 03:17:15;;;;;;;;;;;4.00;99.90;;;;;;4889246;29;19919;-66
2023/01/19 03:19:42;;;;;;;;;;;4.00;99.90;;;;;;4894762;29;20489;-67
2023/01/19 03:22:12;;;;;;;;;;;4.00;99.90;;;;;;4898069;29;19915;-67
2023/01/19 03:24:39;;;;;;;;;;;4.00;99.90;;;;;;4891446;29;19922;-67
2023/01/19 03:27:08;;;;;;;;;;;4.00;99.90;;;;;;4894043;29;19911;-67
2023/01/19 03:29:35;;;;;;;;;;;4.00;99.90;;;;;;4895138;29;20001;-67
2023/01/19 03:32:03;;;;;;;;;;;4.00;99.90;;;;;;4890131;29;19927;-67
2023/01/19 03:34:28;;;;;;;;;;;4.10;99.90;;;;;;4912929;29;20001;-67
2023/01/19 03:36:56;;;;;;;;;;;4.10;99.90;;;;;;4894381;29;20343;-65
2023/01/19 03:39:23;;;;;;;;;;;4.20;99.90;;;;;;4896308;29;19922;-64
2023/01/19 03:41:50;;;;;;;;;;;4.20;99.90;;;;;;4897355;29;19922;-66
2023/01/19 03:44:16;;;;;;;;;;;4.20;99.90;;;;;;4893978;29;20309;-66
2023/01/19 03:46:43;;;;;;;;;;;4.20;99.90;;;;;;4893555;29;19922;-65
2023/01/19 03:49:09;;;;;;;;;;;4.10;99.90;;;;;;4887993;29;19916;-66
2023/01/19 03:51:36;;;;;;;;;;;4.10;99.90;;;;;;4889313;29;19923;-65
2023/01/19 03:54:03;;;;;;;;;;;4.00;99.90;;;;;;4894920;29;19915;-66
2023/01/19 03:56:28;;;;;;;;;;;3.90;99.90;;;;;;4898028;29;20428;-66
2023/01/19 03:58:54;;;;;;;;;;;3.90;99.90;;;;;;4895549;29;19919;-66
2023/01/19 04:01:21;;;;;;;;;;;4.00;99.90;;;;;;4897697;29;19915;-66
2023/01/19 04:03:47;;;;;;;;;;;4.20;99.90;;;;;;4890386;29;19911;-65
2023/01/19 04:06:13;;;;;;;;;;;4.20;99.90;;;;;;4898170;29;19947;-65
2023/01/19 04:08:39;;;;;;;;;;;4.20;99.90;;;;;;4901555;29;19915;-65
2023/01/19 04:11:05;;;;;;;;;;;4.20;99.90;;;;;;4903424;29;19947;-65
2023/01/19 04:13:30;;;;;;;;;;;4.20;99.90;;;;;;4894318;29;20018;-65
2023/01/19 04:16:00;;;;;;;;;;;4.20;99.90;;;;;;4897583;29;19926;-65
2023/01/19 04:18:29;;;;;;;;;;;4.30;99.90;;;;;;4896783;29;20396;-66
2023/01/19 04:20:54;;;;;;;;;;;4.30;99.90;;;;;;4896835;29;21370;-66
2023/01/19 04:23:20;;;;;;;;;;;4.30;99.90;;;;;;4896071;29;19915;-66
2023/01/19 04:25:45;;;;;;;;;;;4.30;99.90;;;;;;4895022;29;20257;-66
2023/01/19 04:28:11;;;;;;;;;;;4.30;99.90;;;;;;4903272;29;19934;-66
2023/01/19 04:30:37;;;;;;;;;;;4.30;99.90;;;;;;4895545;29;20483;-65
2023/01/19 04:33:02;;;;;;;;;;;4.30;99.90;;;;;;4893277;29;19922;-65
2023/01/19 04:35:28;;;;;;;;;;;4.40;99.90;;;;;;4895095;29;19922;-65
2023/01/19 04:37:53;;;;;;;;;;;4.40;99.90;;;;;;4906555;29;19914;-65
2023/01/19 04:40:19;;;;;;;;;;;4.40;99.90;;;;;;4899406;29;19930;-65
2023/01/19 04:42:45;;;;;;;;;;;4.50;99.90;;;;;;4897929;29;20281;-66
2023/01/19 04:45:11;;;;;;;;;;;4.50;99.90;;;;;;4893159;29;20259;-65
2023/01/19 04:47:37;;;;;;;;;;;4.50;99.90;;;;;;4896811;29;19920;-65
2023/01/19 04:50:04;;;;;;;;;;;4.50;99.90;;;;;;4902760;29;19918;-65
2023/01/19 04:52:35;;;;;;;;;;;4.50;99.90;;;;;;4891504;29;20053;-65
2023/01/19 04:55:05;;;;;;;;;;;4.50;99.90;;;;;;4902432;29;19923;-65
2023/01/19 04:57:30;;;;;;;;;;;4.60;99.90;;;;;;4898405;29;20054;-65
2023/01/19 04:59:56;;;;;;;;;;;4.70;99.90;;;;;;4893793;29;19990;-65
2023/01/19 05:02:22;;;;;;;;;;;4.70;99.90;;;;;;4892919;29;20431;-65
2023/01/19 05:04:48;;;;;;;;;;;4.70;99.90;;;;;;4901476;29;20587;-65
2023/01/19 05:07:13;;;;;;;;;;;4.60;99.90;;;;;;4892906;29;19914;-65
2023/01/19 05:09:39;;;;;;;;;;;4.60;99.90;;;;;;4909268;29;19915;-65
2023/01/19 05:12:04;;;;;;;;;;;4.60;99.90;;;;;;4898856;29;19926;-66
2023/01/19 05:14:30;;;;;;;;;;;4.60;99.90;;;;;;4898031;29;20042;-66
2023/01/19 05:16:56;;;;;;;;;;;4.60;99.90;;;;;;4897602;29;19919;-66
2023/01/19 05:19:21;;;;;;;;;;;4.70;99.90;;;;;;4878228;29;19919;-66
2023/01/19 05:21:47;;;;;;;;;;;4.80;99.90;;;;;;4885600;29;20021;-66
2023/01/19 05:24:12;;;;;;;;;;;4.80;99.90;;;;;;4884525;29;19915;-66
2023/01/19 05:26:38;;;;;;;;;;;4.90;99.90;;;;;;4887440;29;19929;-66
2023/01/19 05:29:03;;;;;;;;;;;4.90;99.90;;;;;;4885734;29;20648;-66
2023/01/19 05:31:29;;;;;;;;;;;4.90;99.90;;;;;;4886828;29;19922;-64
2023/01/19 05:33:54;;;;;;;;;;;5.00;99.90;;;;;;4883702;29;19923;-63
2023/01/19 05:36:20;;;;;;;;;;;5.00;99.90;;;;;;4887463;29;19931;-63
2023/01/19 05:38:45;;;;;;;;;;;5.10;99.90;;;;;;4895116;29;20385;-64
2023/01/19 05:41:11;;;;;;;;;;;5.10;99.90;;;;;;4895296;29;19919;-63
2023/01/19 05:43:36;;;;;;;;;;;5.00;99.90;;;;;;4890742;29;19979;-63
2023/01/19 05:46:03;;;;;;;;;;;4.90;99.90;;;;;;4896379;29;19915;-63
2023/01/19 05:48:29;;;;;;;;;;;5.00;99.90;;;;;;4893766;29;19915;-63
2023/01/19 05:50:58;;;;;;;;;;;5.00;99.90;;;;;;4897315;29;19926;-66
2023/01/19 05:53:23;;;;;;;;;;;5.10;99.90;;;;;;4889838;29;21429;-66
2023/01/19 05:55:49;;;;;;;;;;;5.10;99.90;;;;;;4887234;29;19927;-66
2023/01/19 05:58:14;;;;;;;;;;;5.20;99.90;;;;;;4883168;29;19919;-66
2023/01/19 06:00:40;;;;;;;;;;;5.20;99.90;;;;;;4897407;29;19923;-64
2023/01/19 06:03:05;;;;;;;;;;;5.20;99.90;;;;;;4898672;29;19914;-65
2023/01/19 06:05:31;;;;;;;;;;;5.20;99.90;;;;;;4896989;29;20431;-66
2023/01/19 06:07:56;;;;;;;;;;;5.20;99.90;;;;;;4894800;29;20070;-66
2023/01/19 06:10:22;;;;;;;;;;;5.30;99.90;;;;;;4901011;29;19923;-63
2023/01/19 06:12:48;;;;;;;;;;;5.30;99.90;;;;;;4894234;29;19911;-64
2023/01/19 06:15:14;;;;;;;;;;;5.30;99.90;;;;;;4896698;29;19953;-63
2023/01/19 06:17:39;;;;;;;;;;;5.30;99.90;;;;;;4895139;29;20005;-64
2023/01/19 06:20:06;;;;;;;;;;;5.30;99.90;;;;;;4900117;29;19936;-63
2023/01/19 06:22:31;;;;;;;;;;;5.20;99.90;;;;;;4896320;29;19954;-64
2023/01/19 06:24:57;;;;;;;;;;;5.20;99.90;;;;;;4895184;29;20364;-64
2023/01/19 06:27:22;;;;;;;;;;;5.10;99.90;;;;;;4888177;29;20316;-63
2023/01/19 06:29:48;;;;;;;;;;;5.20;99.90;;;;;;4894601;29;19926;-63
2023/01/19 06:32:13;;;;;;;;;;;5.10;99.90;;;;;;4894175;29;19927;-64
2023/01/19 06:34:42;;;;;;;;;;;5.20;99.90;;;;;;4892155;29;19918;-65
2023/01/19 06:37:10;;;;;;;;;;;5.20;99.90;;;;;;4894451;29;19922;-65
2023/01/19 06:39:36;;;;;;;;;;;5.20;99.90;;;;;;4893670;29;20285;-64
2023/01/19 06:42:02;;;;;;;;;;;5.10;99.90;;;;;;4893148;29;19997;-65
2023/01/19 06:44:28;;;;;;;;;;;5.10;99.90;;;;;;4900013;29;19926;-64
2023/01/19 06:46:53;;;;;;;;;;;5.20;99.90;;;;;;4894731;29;20374;-68
2023/01/19 06:49:19;;;;;;;;;;;5.20;99.90;;;;;;4896857;29;19915;-68
2023/01/19 06:51:44;;;;;;;;;;;5.20;99.90;;;;;;4897311;29;20462;-68
2023/01/19 06:54:10;;;;;;;;;;;5.20;99.90;;;;;;4900639;29;19978;-68
2023/01/19 06:56:35;;;;;;;;;;;5.20;99.90;;;;;;4899729;29;19923;-68
2023/01/19 06:59:01;;;;;;;;;;;5.30;99.90;;;;;;4895586;29;19976;-68
2023/01/19 07:01:26;;;;;;;;;;;5.20;99.90;;;;;;4894831;29;20354;-68
2023/01/19 07:03:52;;;;;;;;;;;5.20;99.90;;;;;;4903210;29;20348;-68
2023/01/19 07:06:18;;;;;;;;;;;5.20;99.90;;;;;;4897862;29;19922;-68
2023/01/19 07:08:43;;;;;;;;;;;5.20;99.90;;;;;;4899302;29;19933;-68
2023/01/19 07:11:10;;;;;;;;;;;5.30;99.90;;;;;;4897050;29;19923;-68
2023/01/19 07:13:36;;;;;;;;;;;5.30;99.90;;;;;;4899297;29;20400;-67
2023/01/19 07:16:09;;;;;;;;;;;5.30;99.90;;;;;;4897152;29;19919;-68
2023/01/19 07:18:35;;;;;;;;;;;5.20;99.90;;;;;;4899749;29;20427;-69
2023/01/19 07:21:01;;;;;;;;;;;5.20;99.90;;;;;;4899768;29;19919;-68
2023/01/19 07:23:29;;;;;;;;;;;5.30;99.90;;;;;;4899941;29;20275;-68
2023/01/19 07:25:55;;;;;;;;;;;5.40;99.90;;;;;;4897653;29;19922;-68
2023/01/19 07:28:21;;;;;;;;;;;5.40;99.90;;;;;;4896897;29;20354;-68
2023/01/19 07:30:49;;;;;;;;;;;5.40;99.90;;;;;;4891110;29;19934;-68
2023/01/19 07:33:15;;;;;;;;;;;5.40;99.90;;;;;;4890378;29;19915;-69
2023/01/19 07:35:44;;;;;;;;;;;5.50;99.90;;;;;;4896702;29;19931;-68
2023/01/19 07:38:10;;;;;;;;;;;5.50;99.90;;;;;;4896584;29;19924;-68
2023/01/19 07:40:35;;;;;;;;;;;5.50;99.90;;;;;;4898805;29;19915;-68
2023/01/19 07:43:01;;;;;;;;;;;5.60;99.90;;;;;;4899542;29;19915;-64
2023/01/19 07:45:27;;;;;;;;;;;5.60;99.90;;;;;;4902046;29;19915;-65
2023/01/19 07:47:52;;;;;;;;;;;5.60;99.90;;;;;;4903556;29;20090;-65
2023/01/19 07:50:23;;;;;;;;;;;5.60;99.90;;;;;;4905336;29;20404;-65
2023/01/19 07:52:51;;;;;;;;;;;5.70;99.90;;;;;;4899103;29;19951;-65
2023/01/19 07:55:17;;;;;;;;;;;5.70;99.90;;;;;;4903773;29;19919;-65
2023/01/19 07:57:42;;;;;;;;;;;5.70;99.90;;;;;;4896116;29;20874;-64
2023/01/19 08:00:08;;;;;;;;;;;5.70;99.90;;;;;;4902254;29;19950;-64
2023/01/19 08:02:34;;;;;;;;;;;5.70;99.90;;;;;;4899488;29;19922;-68
2023/01/19 08:05:00;;;;;;;;;;;5.70;99.90;;;;;;4902150;29;19923;-69
2023/01/19 08:07:26;;;;;;;;;;;5.80;99.90;;;;;;4903416;29;20051;-69
2023/01/19 08:09:52;;;;;;;;;;;5.70;99.90;;;;;;4904080;29;20356;-68
2023/01/19 08:12:17;;;;;;;;;;;5.60;99.90;;;;;;4898606;29;19926;-68
2023/01/19 08:14:43;;;;;;;;;;;5.60;99.90;;;;;;4900941;29;19923;-68
2023/01/19 08:17:11;;;;;;;;;;;5.60;99.90;;;;;;4901104;29;19911;-68
2023/01/19 08:19:36;;;;;;;;;;;5.60;99.90;;;;;;4904308;29;19915;-68
2023/01/19 08:22:02;;;;;;;;;;;5.70;99.90;;;;;;4895371;29;19914;-68
2023/01/19 08:24:28;;;;;;;;;;;5.80;99.90;;;;;;4881371;29;19919;-64
2023/01/19 08:26:58;;;;;;;;;;;5.80;99.90;;;;;;4892687;29;19922;-65
2023/01/19 08:29:23;;;;;;;;;;;5.90;99.90;;;;;;4889192;29;19950;-65
2023/01/19 08:31:49;;;;;;;;;;;5.90;99.90;;;;;;4889192;29;19922;-65
2023/01/19 08:34:14;;;;;;;;;;;5.90;99.90;;;;;;4889629;29;19922;-65
2023/01/19 08:36:40;;;;;;;;;;;5.90;99.90;;;;;;4888473;29;19919;-64
2023/01/19 08:39:05;;;;;;;;;;;5.90;99.90;;;;;;4886841;29;20899;-65
2023/01/19 08:41:31;;;;;;;;;;;5.90;99.90;;;;;;4890602;29;20777;-65
2023/01/19 08:43:56;;;;;;;;;;;5.90;99.90;;;;;;4891425;29;19925;-65
2023/01/19 08:46:22;;;;;;;;;;;5.80;99.90;;;;;;4894446;29;20031;-65
2023/01/19 08:48:48;;;;;;;;;;;5.80;99.90;;;;;;4900291;29;19924;-65
2023/01/19 08:51:14;;;;;;;;;;;5.80;99.90;;;;;;4904013;29;19927;-65
2023/01/19 08:53:41;;;;;;;;;;;5.80;99.90;;;;;;4898931;29;19911;-65
2023/01/19 08:56:11;;;;;;;;;;;5.70;99.90;;;;;;4899023;29;19919;-65
2023/01/19 08:58:40;;;;;;;;;;;5.70;99.90;;;;;;4901362;29;19935;-65
2023/01/19 09:01:07;;;;;;;;;;;5.80;99.90;;;;;;4901906;29;20551;-65
2023/01/19 09:03:33;;;;;;;;;;;5.80;99.90;;;;;;4901189;29;19922;-65
2023/01/19 09:05:58;;;;;;;;;;;5.70;99.90;;;;;;4888138;29;20303;-65
2023/01/19 09:08:24;;;;;;;;;;;5.70;99.90;;;;;;4892848;29;19919;-65
2023/01/19 09:10:50;;;;;;;;;;;5.70;99.90;;;;;;4889872;29;19922;-65
2023/01/19 09:13:16;;;;;;;;;;;5.70;99.90;;;;;;4896598;29;19921;-65
2023/01/19 09:15:42;;;;;;;;;;;5.80;99.90;;;;;;4900352;29;19911;-65
2023/01/19 09:18:11;;;;;;;;;;;5.80;99.90;;;;;;4900269;29;19914;-65
2023/01/19 09:20:37;;;;;;;;;;;5.70;99.90;;;;;;4894809;29;20368;-68
2023/01/19 09:23:03;;;;;;;;;;;5.70;99.90;;;;;;4894843;29;20378;-68
2023/01/19 09:25:29;;;;;;;;;;;5.70;99.90;;;;;;4905724;29;19915;-68
2023/01/19 09:27:55;;;;;;;;;;;5.70;99.90;;;;;;4900202;29;19915;-68
2023/01/19 09:30:20;;;;;;;;;;;5.70;99.90;;;;;;4900835;29;19915;-68
2023/01/19 09:32:46;;;;;;;;;;;5.70;99.90;;;;;;4905635;29;19930;-68
2023/01/19 09:35:12;;;;;;;;;;;5.70;99.90;;;;;;4903221;29;20009;-68
2023/01/19 09:37:37;;;;;;;;;;;5.80;99.90;;;;;;4901606;29;20394;-65
2023/01/19 09:40:04;;;;;;;;;;;5.80;99.90;;;;;;4902461;29;19919;-65
2023/01/19 09:42:41;;;;;;;;;;;5.80;99.90;;;;;;4899179;29;19911;-65
2023/01/19 09:45:12;;;;;;;;;;;5.80;99.90;;;;;;4901250;29;19911;-65
2023/01/19 09:47:37;;;;;;;;;;;5.90;99.90;;;;;;4901594;29;19915;-65
2023/01/19 09:50:11;;;;;;;;;;;5.80;99.90;;;;;;4903090;29;19917;-65
2023/01/19 09:52:40;;;;;;;;;;;5.90;99.90;;;;;;4900111;29;19926;-64
2023/01/19 09:55:16;;;;;;;;;;;5.90;99.90;;;;;;4889630;29;21096;-65
2023/01/19 09:57:42;;;;;;;;;;;5.90;99.90;;;;;;4895940;29;19919;-65
2023/01/19 10:00:16;;;;;;;;;;;5.80;99.90;;;;;;4900325;29;19967;-65
2023/01/19 10:03:05;;;;;;;;;;;5.90;99.90;;;;;;4904647;29;19911;-65
2023/01/19 10:05:38;;;;;;;;;;;5.90;99.90;;;;;;4901316;29;19966;-65
2023/01/19 10:08:07;;;;;;;;;;;5.90;99.90;;;;;;4904023;29;20380;-64
2023/01/19 10:10:33;;;;;;;;;;;5.90;99.90;;;;;;4905761;29;20452;-65
2023/01/19 10:12:59;;;;;;;;;;;5.90;99.90;;;;;;4904405;29;20399;-64
2023/01/19 10:15:35;;;;;;;;;;;5.90;99.90;;;;;;4906009;29;19915;-64
2023/01/19 10:18:13;;;;;;;;;;;5.90;99.90;;;;;;4899340;29;19921;-65
2023/01/19 10:20:52;;;;;;;;;;;5.90;99.90;;;;;;4895091;29;19923;-65
2023/01/19 10:23:39;;;;;;;;;;;5.80;99.90;;;;;;4897864;29;19911;-64
2023/01/19 10:26:11;;;;;;;;;;;5.90;99.90;;;;;;4896687;29;21726;-65
2023/01/19 10:28:37;;;;;;;;;;;5.90;99.90;;;;;;4904012;29;19958;-65
2023/01/19 10:31:05;;;;;;;;;;;5.80;99.90;;;;;;4903512;29;19927;-65
2023/01/19 10:33:31;;;;;;;;;;;5.80;99.90;;;;;;4895039;29;20005;-65
2023/01/19 10:35:57;;;;;;;;;;;5.80;99.90;;;;;;4902244;29;20870;-69
2023/01/19 10:38:23;;;;;;;;;;;5.80;99.90;;;;;;4904639;29;19911;-69
2023/01/19 10:40:57;;;;;;;;;;;5.80;99.90;;;;;;4902038;29;19922;-69
2023/01/19 10:43:38;;;;;;;;;;;5.70;99.90;;;;;;4903849;29;19919;-69
2023/01/19 10:46:04;;;;;;;;;;;5.70;99.90;;;;;;4904515;29;20059;-69
2023/01/19 10:48:40;;;;;;;;;;;5.60;99.90;;;;;;4905153;29;19919;-69
2023/01/19 10:51:07;;;;;;;;;;;5.60;99.90;;;;;;4898794;29;19927;-68
2023/01/19 10:53:33;;;;;;;;;;;5.70;99.90;;;;;;4894255;29;20568;-69
2023/01/19 10:56:09;;;;;;;;;;;5.70;99.90;;;;;;4900262;29;19955;-69
2023/01/19 10:58:35;;;;;;;;;;;5.70;99.90;;;;;;4898885;29;19918;-69
2023/01/19 11:01:19;;;;;;;;;;;5.70;99.90;;;;;;4899096;29;19915;-69
2023/01/19 11:03:45;;;;;;;;;;;5.70;99.90;;;;;;4905935;29;19918;-69
2023/01/19 11:06:21;;;;;;;;;;;5.70;99.90;;;;;;4904812;29;19919;-69
2023/01/19 11:08:49;;;;;;;;;;;5.70;99.90;;;;;;4901504;29;19914;-68
2023/01/19 11:11:14;;;;;;;;;;;5.70;99.90;;;;;;4903353;29;20032;-69
2023/01/19 11:13:40;;;;;;;;;;;5.70;99.90;;;;;;4904680;29;19957;-68
2023/01/19 11:16:23;;;;;;;;;;;5.70;99.90;;;;;;4905867;29;19919;-69
2023/01/19 11:18:51;;;;;;;;;;;5.70;99.90;;;;;;4893743;29;19915;-69
2023/01/19 11:21:16;;;;;;;;;;;5.70;99.90;;;;;;4901981;29;20026;-69
2023/01/19 11:23:56;;;;;;;;;;;5.70;99.90;;;;;;4898170;29;20407;-69
2023/01/19 11:26:31;;;;;;;;;;;5.70;99.90;;;;;;4904221;29;20021;-69
2023/01/19 11:28:58;;;;;;;;;;;5.70;99.90;;;;;;4898310;29;19969;-69
2023/01/19 11:31:27;;;;;;;;;;;5.70;99.90;;;;;;4902335;29;19926;-69
2023/01/19 11:33:53;;;;;;;;;;;5.70;99.90;;;;;;4901394;29;20006;-65
2023/01/19 11:36:23;;;;;;;;;;;5.70;99.90;;;;;;4907000;29;20426;-65
2023/01/19 11:38:50;;;;;;;;;;;5.70;99.90;;;;;;4895096;29;19919;-65
2023/01/19 11:41:20;;;;;;;;;;;5.80;99.90;;;;;;4900244;29;19925;-65
2023/01/19 11:43:47;;;;;;;;;;;5.80;99.90;;;;;;4900039;29;19994;-65
2023/01/19 11:46:14;;;;;;;;;;;5.80;99.90;;;;;;4904431;29;19923;-65
2023/01/19 11:48:42;;;;;;;;;;;5.70;99.90;;;;;;4905487;29;20007;-65
2023/01/19 11:51:12;;;;;;;;;;;5.70;99.90;;;;;;4904043;29;19923;-64
2023/01/19 11:53:37;;;;;;;;;;;5.70;99.90;;;;;;4899037;29;19911;-65
2023/01/19 11:56:13;;;;;;;;;;;5.70;99.90;;;;;;4902750;29;19934;-64
2023/01/19 11:58:40;;;;;;;;;;;5.80;99.90;;;;;;4898826;29;20583;-65
2023/01/19 12:01:08;;;;;;;;;;;5.80;99.90;;;;;;4900702;29;19922;-65
2023/01/19 12:03:39;;;;;;;;;;;5.70;99.90;;;;;;4902440;29;19911;-65
2023/01/19 12:06:04;;;;;;;;;;;5.70;99.90;;;;;;4902570;29;20443;-65
2023/01/19 12:08:34;;;;;;;;;;;5.70;99.90;;;;;;4901211;29;19963;-65
2023/01/19 12:11:01;;;;;;;;;;;5.80;99.90;;;;;;4903122;29;19923;-64
2023/01/19 12:13:29;;;;;;;;;;;5.90;99.90;;;;;;4902583;29;19915;-65
2023/01/19 12:16:06;;;;;;;;;;;5.90;99.90;;;;;;4901720;29;19915;-65
2023/01/19 12:18:39;;;;;;;;;;;5.90;99.90;;;;;;4902281;29;19919;-65
2023/01/19 12:21:05;;;;;;;;;;;5.90;99.90;;;;;;4901096;29;19927;-65
2023/01/19 12:23:43;;;;;;;;;;;5.70;99.90;;;;;;4905222;29;19922;-65
2023/01/19 12:26:14;;;;;;;;;;;5.60;99.90;;;;;;4900274;29;19911;-65
2023/01/19 12:28:42;;;;;;;;;;;5.70;99.90;;;;;;4904653;29;19919;-65
2023/01/19 12:31:08;;;;;;;;;;;5.70;99.90;;;;;;4904242;29;19926;-65
2023/01/19 12:33:35;;;;;;;;;;;5.80;99.90;;;;;;4905115;29;19911;-65
2023/01/19 12:36:03;;;;;;;;;;;5.80;99.90;;;;;;4909530;29;19926;-65
2023/01/19 12:38:31;;;;;;;;;;;5.70;99.90;;;;;;4906122;29;19966;-65
2023/01/19 12:41:32;;;;;;;;;;;5.80;99.90;;;;;;4908253;29;19969;-64
2023/01/19 12:44:10;;;;;;;;;;;5.70;99.90;;;;;;4844975;29;19947;-64
2023/01/19 12:46:37;;;;;;;;;;;5.60;99.90;;;;;;4898945;29;19915;-64
2023/01/19 12:49:21;;;;;;;;;;;5.70;99.90;;;;;;4895720;29;19978;-68
2023/01/19 12:51:47;;;;;;;;;;;5.80;99.90;;;;;;4903064;29;20001;-69
2023/01/19 12:54:19;;;;;;;;;;;5.90;99.90;;;;;;4908340;29;21613;-69
2023/01/19 12:56:44;;;;;;;;;;;6.00;99.90;;;;;;4908431;29;20299;-68
2023/01/19 12:59:23;;;;;;;;;;;6.00;99.90;;;;;;4900570;29;19915;-69
2023/01/19 13:02:07;;;;;;;;;;;5.90;99.90;;;;;;4902762;29;19961;-70
2023/01/19 13:04:33;;;;;;;;;;;5.90;99.90;;;;;;4896863;29;19919;-69
2023/01/19 13:07:09;;;;;;;;;;;5.90;99.90;;;;;;4889416;29;19922;-68
2023/01/19 13:09:35;;;;;;;;;;;6.10;99.90;;;;;;4895883;29;19915;-64
2023/01/19 13:12:13;;;;;;;;;;;6.10;99.90;;;;;;4897813;29;20565;-64
2023/01/19 13:14:39;;;;;;;;;;;6.20;99.90;;;;;;4894422;29;20346;-64
2023/01/19 13:17:24;;;;;;;;;;;6.30;99.90;;;;;;4896391;29;19983;-64
2023/01/19 13:19:56;;;;;;;;;;;6.30;99.90;;;;;;4911639;29;19967;-64
2023/01/19 13:22:40;;;;;;;;;;;6.30;99.90;;;;;;4900168;29;19915;-64
2023/01/19 13:25:08;;;;;;;;;;;6.30;99.90;;;;;;4899242;29;19919;-64
2023/01/19 13:27:33;;;;;;;;;;;6.30;99.90;;;;;;4897832;29;19919;-64
2023/01/19 13:29:59;;;;;;;;;;;6.40;99.90;;;;;;4891811;29;19926;-64
2023/01/19 13:32:25;;;;;;;;;;;6.40;99.90;;;;;;4903055;29;19923;-64
2023/01/19 13:34:53;;;;;;;;;;;6.40;99.90;;;;;;4899307;29;20497;-64
2023/01/19 13:37:20;;;;;;;;;;;6.40;99.90;;;;;;4898674;29;19915;-64
2023/01/19 13:39:50;;;;;;;;;;;6.40;99.90;;;;;;4906692;29;19915;-65
2023/01/19 13:42:34;;;;;;;;;;;6.40;99.90;;;;;;4902218;29;20005;-65
2023/01/19 13:45:00;;;;;;;;;;;6.40;99.90;;;;;;4909534;29;19915;-65
2023/01/19 13:47:43;;;;;;;;;;;6.30;99.90;;;;;;4905569;29;19907;-69
2023/01/19 13:50:17;;;;;;;;;;;6.40;99.90;;;;;;4907796;29;19915;-69
2023/01/19 13:52:42;;;;;;;;;;;6.40;99.90;;;;;;4902605;29;19922;-70
2023/01/19 13:55:12;;;;;;;;;;;6.50;99.90;;;;;;4903440;29;20245;-69
2023/01/19 13:57:40;;;;;;;;;;;6.60;99.90;;;;;;4906325;29;19914;-69
2023/01/19 14:00:06;;;;;;;;;;;6.50;99.90;;;;;;4906695;29;19915;-69
2023/01/19 14:02:31;;;;;;;;;;;6.50;99.90;;;;;;4905488;29;19931;-69
2023/01/19 14:04:57;;;;;;;;;;;6.50;99.90;;;;;;4901522;29;19915;-65
2023/01/19 14:07:25;;;;;;;;;;;6.40;99.90;;;;;;4907809;29;19915;-65
2023/01/19 14:10:03;;;;;;;;;;;6.40;99.90;;;;;;4901333;29;20054;-65
2023/01/19 14:12:30;;;;;;;;;;;6.40;99.90;;;;;;4902449;29;19923;-65
2023/01/19 14:14:56;;;;;;;;;;;6.40;99.90;;;;;;4898400;29;19926;-65
2023/01/19 14:17:26;;;;;;;;;;;6.30;99.90;;;;;;4899111;29;20689;-65
2023/01/19 14:19:55;;;;;;;;;;;6.40;99.90;;;;;;4901758;29;20352;-65
2023/01/19 14:22:35;;;;;;;;;;;6.30;99.90;;;;;;4896822;29;20361;-65
2023/01/19 14:25:24;;;;;;;;;;;6.30;99.90;;;;;;4906007;29;20011;-69
2023/01/19 14:27:50;;;;;;;;;;;6.20;99.90;;;;;;4901345;29;20552;-69
2023/01/19 14:30:20;;;;;;;;;;;6.10;99.90;;;;;;4902479;29;19915;-69
2023/01/19 14:32:46;;;;;;;;;;;6.00;99.90;;;;;;4902562;29;22011;-69
2023/01/19 14:35:22;;;;;;;;;;;5.90;99.90;;;;;;4902882;29;19910;-69
2023/01/19 14:37:48;;;;;;;;;;;5.80;99.90;;;;;;4903149;29;19929;-70
2023/01/19 14:40:19;;;;;;;;;;;5.80;99.90;;;;;;4906129;29;19922;-69
2023/01/19 14:42:44;;;;;;;;;;;5.80;99.90;;;;;;4906522;29;20033;-70
2023/01/19 14:45:18;;;;;;;;;;;5.90;99.90;;;;;;4894878;29;20474;-70
2023/01/19 14:47:44;;;;;;;;;;;5.90;99.90;;;;;;4908351;29;19935;-70